createdAt,value
2019-01-27T00:00:34.013Z,99.90
2019-01-27T00:03:02.592Z,99.60
2019-01-27T00:05:31.159Z,96.20
2019-01-27T00:07:59.804Z,95.30
2019-01-27T00:10:28.310Z,95.40
2019-01-27T00:12:56.839Z,95.80
2019-01-27T00:15:25.339Z,95.80
2019-01-27T00:17:53.941Z,96.00
2019-01-27T00:20:23.686Z,96.20
2019-01-27T00:22:52.329Z,95.90
2019-01-27T00:25:20.911Z,96.20
2019-01-27T00:27:49.504Z,96.30
2019-01-27T00:30:22.499Z,96.40
2019-01-27T00:32:51.075Z,96.40
2019-01-27T00:35:19.639Z,96.50
2019-01-27T00:37:48.136Z,96.50
2019-01-27T00:40:17.908Z,96.50
2019-01-27T00:42:46.561Z,96.40
2019-01-27T00:45:19.503Z,96.50
2019-01-27T00:47:47.912Z,96.70
2019-01-27T00:50:18.120Z,96.70
2019-01-27T00:52:46.797Z,96.70
2019-01-27T00:55:20.322Z,96.70
2019-01-27T00:57:48.852Z,96.70
2019-01-27T01:00:22.812Z,96.60
2019-01-27T01:02:51.368Z,96.70
2019-01-27T01:05:19.900Z,96.60
2019-01-27T01:07:48.606Z,96.60
2019-01-27T01:10:20.003Z,96.60
2019-01-27T01:12:48.524Z,96.50
2019-01-27T01:15:17.315Z,96.50
2019-01-27T01:17:45.917Z,96.40
2019-01-27T01:20:17.462Z,96.40
2019-01-27T01:22:46.571Z,96.20
2019-01-27T01:25:17.965Z,96.20
2019-01-27T01:27:46.399Z,96.10
2019-01-27T01:30:17.880Z,95.90
2019-01-27T01:32:46.405Z,96.00
2019-01-27T01:35:15.044Z,95.80
2019-01-27T01:37:43.638Z,95.90
2019-01-27T01:40:14.891Z,95.80
2019-01-27T01:42:43.428Z,95.60
2019-01-27T01:45:15.285Z,95.60
2019-01-27T01:47:43.799Z,95.50
2019-01-27T01:50:12.464Z,95.50
2019-01-27T01:52:41.022Z,95.40
2019-01-27T01:55:11.261Z,95.50
2019-01-27T01:57:39.725Z,95.50
2019-01-27T02:00:16.441Z,95.40
2019-01-27T02:02:45.114Z,95.50
2019-01-27T02:05:15.648Z,95.50
2019-01-27T02:07:44.465Z,95.50
2019-01-27T02:10:15.627Z,95.40
2019-01-27T02:12:44.186Z,95.40
2019-01-27T02:15:30.644Z,95.40
2019-01-27T02:17:59.335Z,95.30
2019-01-27T02:20:27.920Z,95.30
2019-01-27T02:22:56.368Z,95.20
2019-01-27T02:25:24.782Z,95.20
2019-01-27T02:27:53.344Z,95.20
2019-01-27T02:30:22.178Z,95.30
2019-01-27T02:32:50.685Z,95.30
2019-01-27T02:35:19.185Z,95.20
2019-01-27T02:37:47.638Z,95.20
2019-01-27T02:40:17.009Z,95.10
2019-01-27T02:42:45.438Z,95.10
2019-01-27T02:45:18.182Z,95.20
2019-01-27T02:47:46.676Z,95.20
2019-01-27T02:50:15.189Z,95.20
2019-01-27T02:52:43.673Z,95.20
2019-01-27T02:55:12.261Z,95.20
2019-01-27T02:57:40.686Z,95.30
2019-01-27T03:00:15.245Z,95.30
2019-01-27T03:02:43.729Z,95.30
2019-01-27T03:05:13.945Z,95.40
2019-01-27T03:07:42.385Z,95.40
2019-01-27T03:10:14.321Z,95.50
2019-01-27T03:12:42.791Z,95.40
2019-01-27T03:15:12.267Z,95.40
2019-01-27T03:17:40.749Z,95.40
2019-01-27T03:20:11.389Z,95.40
2019-01-27T03:22:39.825Z,95.50
2019-01-27T03:25:11.341Z,95.50
2019-01-27T03:27:39.881Z,95.50
2019-01-27T03:30:21.846Z,95.40
2019-01-27T03:32:50.659Z,95.40
2019-01-27T03:35:19.376Z,95.40
2019-01-27T03:37:47.917Z,95.40
2019-01-27T03:40:17.944Z,95.30
2019-01-27T03:42:46.492Z,95.40
2019-01-27T03:45:22.344Z,95.50
2019-01-27T03:47:50.854Z,95.40
2019-01-27T03:50:21.397Z,95.40
2019-01-27T03:52:50.073Z,95.40
2019-01-27T03:55:24.278Z,95.30
2019-01-27T03:57:52.708Z,95.30
2019-01-27T04:00:22.404Z,95.30
2019-01-27T04:02:51.133Z,95.30
2019-01-27T04:05:19.823Z,95.30
2019-01-27T04:07:48.395Z,95.20
2019-01-27T04:10:18.940Z,95.20
2019-01-27T04:12:47.448Z,95.20
2019-01-27T04:15:15.987Z,95.30
2019-01-27T04:17:44.507Z,95.30
2019-01-27T04:20:15.271Z,95.30
2019-01-27T04:22:43.852Z,95.50
2019-01-27T04:25:12.751Z,95.70
2019-01-27T04:27:41.246Z,95.90
2019-01-27T04:30:12.859Z,96.00
2019-01-27T04:32:41.389Z,96.00
2019-01-27T04:35:11.404Z,95.90
2019-01-27T04:37:39.898Z,95.90
2019-01-27T04:40:16.665Z,96.00
2019-01-27T04:42:45.253Z,96.00
2019-01-27T04:45:16.999Z,96.00
2019-01-27T04:47:45.575Z,96.10
2019-01-27T04:50:14.879Z,96.10
2019-01-27T04:52:43.426Z,96.10
2019-01-27T04:55:14.589Z,96.10
2019-01-27T04:57:43.132Z,96.50
2019-01-27T05:00:27.607Z,96.20
2019-01-27T05:03:00.646Z,96.10
2019-01-27T05:05:29.165Z,96.10
2019-01-27T05:07:57.583Z,96.00
2019-01-27T05:10:26.021Z,96.00
2019-01-27T05:12:54.479Z,96.00
2019-01-27T05:15:28.540Z,96.00
2019-01-27T05:17:57.029Z,95.90
2019-01-27T05:20:25.470Z,95.90
2019-01-27T05:22:54.005Z,96.20
2019-01-27T05:25:22.525Z,96.50
2019-01-27T05:27:50.970Z,96.70
2019-01-27T05:30:26.687Z,97.00
2019-01-27T05:32:55.251Z,97.10
2019-01-27T05:35:23.686Z,97.30
2019-01-27T05:37:52.210Z,97.50
2019-01-27T05:40:24.404Z,97.50
2019-01-27T05:42:52.851Z,97.60
2019-01-27T05:45:22.706Z,97.50
2019-01-27T05:47:51.213Z,97.60
2019-01-27T05:50:19.959Z,97.70
2019-01-27T05:52:48.457Z,97.70
2019-01-27T05:55:18.234Z,97.70
2019-01-27T05:57:46.732Z,97.70
2019-01-27T06:00:24.630Z,97.70
2019-01-27T06:02:53.068Z,97.70
2019-01-27T06:05:21.612Z,97.70
2019-01-27T06:07:50.077Z,97.70
2019-01-27T06:10:18.623Z,97.70
2019-01-27T06:12:47.060Z,97.70
2019-01-27T06:15:17.514Z,97.70
2019-01-27T06:17:45.953Z,97.60
2019-01-27T06:20:15.523Z,97.60
2019-01-27T06:22:44.010Z,97.60
2019-01-27T06:25:15.298Z,97.50
2019-01-27T06:27:43.785Z,97.50
2019-01-27T06:30:15.250Z,97.60
2019-01-27T06:32:51.401Z,97.60
2019-01-27T06:35:19.812Z,97.60
2019-01-27T06:37:48.235Z,97.70
2019-01-27T06:40:16.731Z,97.70
2019-01-27T06:42:45.241Z,97.70
2019-01-27T06:45:13.744Z,97.70
2019-01-27T06:47:42.167Z,97.70
2019-01-27T06:50:12.430Z,97.60
2019-01-27T06:52:40.845Z,97.60
2019-01-27T06:55:12.489Z,97.70
2019-01-27T06:57:40.990Z,97.60
2019-01-27T07:00:16.808Z,97.50
2019-01-27T07:02:46.099Z,97.50
2019-01-27T07:05:16.171Z,97.50
2019-01-27T07:07:58.117Z,97.60
2019-01-27T07:10:30.879Z,97.50
2019-01-27T07:13:10.086Z,97.50
2019-01-27T07:15:42.864Z,97.50
2019-01-27T07:18:18.660Z,97.50
2019-01-27T07:20:54.713Z,97.50
2019-01-27T07:23:30.468Z,97.50
2019-01-27T07:26:00.564Z,97.50
2019-01-27T07:28:39.065Z,97.50
2019-01-27T07:31:27.197Z,97.50
2019-01-27T07:34:00.029Z,97.50
2019-01-27T07:36:35.879Z,97.40
2019-01-27T07:39:12.212Z,97.40
2019-01-27T07:41:45.249Z,97.50
2019-01-27T07:44:30.358Z,97.50
2019-01-27T07:47:00.425Z,97.50
2019-01-27T07:49:33.538Z,97.40
2019-01-27T07:52:03.768Z,97.40
2019-01-27T07:54:45.652Z,97.40
2019-01-27T07:57:31.795Z,97.30
2019-01-27T08:00:04.589Z,97.30
2019-01-27T08:02:34.676Z,97.30
2019-01-27T08:05:08.621Z,97.30
2019-01-27T08:07:38.693Z,97.30
2019-01-27T08:10:13.347Z,97.30
2019-01-27T08:12:49.485Z,97.30
2019-01-27T08:15:19.565Z,97.30
2019-01-27T08:17:49.632Z,97.20
2019-01-27T08:20:28.673Z,97.10
2019-01-27T08:22:58.782Z,97.00
2019-01-27T08:25:37.731Z,96.90
2019-01-27T08:28:07.948Z,96.80
2019-01-27T08:30:43.809Z,96.70
2019-01-27T08:33:19.320Z,96.70
2019-01-27T08:35:49.384Z,96.60
2019-01-27T08:38:37.040Z,96.50
2019-01-27T08:41:15.897Z,96.40
2019-01-27T08:43:45.993Z,96.20
2019-01-27T08:46:16.069Z,95.90
2019-01-27T08:48:44.517Z,95.80
2019-01-27T08:51:12.940Z,95.80
2019-01-27T08:53:41.385Z,95.80
2019-01-27T08:56:09.817Z,95.60
2019-01-27T08:58:38.287Z,95.50
2019-01-27T09:01:08.443Z,95.40
2019-01-27T09:03:47.530Z,95.40
2019-01-27T09:06:17.636Z,95.40
2019-01-27T09:08:47.732Z,95.40
2019-01-27T09:11:17.803Z,95.30
2019-01-27T09:13:47.870Z,95.10
2019-01-27T09:16:26.793Z,95.00
2019-01-27T09:19:14.669Z,94.70
2019-01-27T09:21:44.753Z,94.40
2019-01-27T09:24:20.481Z,94.00
2019-01-27T09:26:59.497Z,94.10
2019-01-27T09:29:29.615Z,93.90
2019-01-27T09:31:59.758Z,93.90
2019-01-27T09:34:32.670Z,93.80
2019-01-27T09:37:18.803Z,93.50
2019-01-27T09:40:05.158Z,93.20
2019-01-27T09:42:44.198Z,93.40
2019-01-27T09:45:14.842Z,93.20
2019-01-27T09:47:45.016Z,92.60
2019-01-27T09:50:17.718Z,92.40
2019-01-27T09:52:59.577Z,91.20
2019-01-27T09:55:29.663Z,91.10
2019-01-27T09:57:59.763Z,90.60
2019-01-27T10:00:45.905Z,90.50
2019-01-27T10:03:16.065Z,90.30
2019-01-27T10:05:48.719Z,90.20
2019-01-27T10:08:36.776Z,90.30
2019-01-27T10:11:06.990Z,90.00
2019-01-27T10:13:39.592Z,89.80
2019-01-27T10:16:09.654Z,90.00
2019-01-27T10:18:39.733Z,90.10
2019-01-27T10:21:15.625Z,90.10
2019-01-27T10:23:48.692Z,90.20
2019-01-27T10:26:18.748Z,90.20
2019-01-27T10:28:48.876Z,90.30
2019-01-27T10:31:18.993Z,90.00
2019-01-27T10:34:05.124Z,90.00
2019-01-27T10:36:35.180Z,90.00
2019-01-27T10:39:09.836Z,89.90
2019-01-27T10:41:42.994Z,90.00
2019-01-27T10:44:27.719Z,90.30
2019-01-27T10:47:03.586Z,90.30
2019-01-27T10:49:33.672Z,90.60
2019-01-27T10:52:03.804Z,90.20
2019-01-27T10:54:36.411Z,87.50
2019-01-27T10:57:12.354Z,85.70
2019-01-27T10:59:51.278Z,85.20
2019-01-27T11:02:24.437Z,81.80
2019-01-27T11:04:54.606Z,81.60
2019-01-27T11:07:36.398Z,78.70
2019-01-27T11:10:25.927Z,78.20
2019-01-27T11:12:55.983Z,77.00
2019-01-27T11:15:33.387Z,75.60
2019-01-27T11:18:03.573Z,75.00
2019-01-27T11:20:40.001Z,73.60
2019-01-27T11:23:11.130Z,73.40
2019-01-27T11:25:41.294Z,72.80
2019-01-27T11:28:11.486Z,72.20
2019-01-27T11:30:41.715Z,72.00
2019-01-27T11:33:17.754Z,70.00
2019-01-27T11:35:47.931Z,69.40
2019-01-27T11:38:18.032Z,69.60
2019-01-27T11:40:48.170Z,70.40
2019-01-27T11:43:18.304Z,71.40
2019-01-27T11:46:04.718Z,71.80
2019-01-27T11:48:37.498Z,71.20
2019-01-27T11:51:07.564Z,71.90
2019-01-27T11:53:36.108Z,72.70
2019-01-27T11:56:04.886Z,72.70
2019-01-27T11:58:33.487Z,72.60
2019-01-27T12:01:02.831Z,72.80
2019-01-27T12:03:31.274Z,72.10
2019-01-27T12:05:59.709Z,72.60
2019-01-27T12:08:28.249Z,72.50
2019-01-27T12:10:56.775Z,72.60
2019-01-27T12:13:25.211Z,73.90
2019-01-27T12:15:53.663Z,74.20
2019-01-27T12:18:22.136Z,74.70
2019-01-27T12:20:50.613Z,75.00
2019-01-27T12:23:19.053Z,75.70
2019-01-27T12:25:47.564Z,75.10
2019-01-27T12:28:16.016Z,75.20
2019-01-27T12:30:44.668Z,72.80
2019-01-27T12:33:13.243Z,70.20
2019-01-27T12:35:41.843Z,69.70
2019-01-27T12:38:10.295Z,68.10
2019-01-27T12:40:38.905Z,66.50
2019-01-27T12:43:07.444Z,65.80
2019-01-27T12:45:36.016Z,64.80
2019-01-27T12:48:04.576Z,61.30
2019-01-27T12:50:33.016Z,62.20
2019-01-27T12:53:01.598Z,58.90
2019-01-27T12:55:30.079Z,58.20
2019-01-27T12:57:58.601Z,59.20
2019-01-27T13:00:33.111Z,60.50
2019-01-27T13:03:01.631Z,62.00
2019-01-27T13:05:30.165Z,61.90
2019-01-27T13:07:58.621Z,62.00
2019-01-27T13:10:27.076Z,62.60
2019-01-27T13:12:55.592Z,63.60
2019-01-27T13:15:24.086Z,64.10
2019-01-27T13:17:52.661Z,63.60
2019-01-27T13:20:21.082Z,64.30
2019-01-27T13:22:49.549Z,65.50
2019-01-27T13:25:20.093Z,65.00
2019-01-27T13:27:48.726Z,65.40
2019-01-27T13:30:22.819Z,67.30
2019-01-27T13:32:51.432Z,68.60
2019-01-27T13:35:20.497Z,69.50
2019-01-27T13:37:49.116Z,69.20
2019-01-27T13:40:19.386Z,70.20
2019-01-27T13:42:48.027Z,70.30
2019-01-27T13:45:22.191Z,71.00
2019-01-27T13:47:50.701Z,71.30
2019-01-27T13:50:19.321Z,71.80
2019-01-27T13:52:49.433Z,71.60
2019-01-27T13:55:25.340Z,71.10
2019-01-27T13:57:53.953Z,71.20
2019-01-27T14:00:25.165Z,70.70
2019-01-27T14:02:53.786Z,70.60
2019-01-27T14:05:22.704Z,70.60
2019-01-27T14:07:51.240Z,71.00
2019-01-27T14:10:28.159Z,70.20
2019-01-27T14:12:56.807Z,68.10
2019-01-27T14:15:27.979Z,65.40
2019-01-27T14:17:56.475Z,65.30
2019-01-27T14:20:25.123Z,64.50
2019-01-27T14:22:53.652Z,66.00
2019-01-27T14:25:27.320Z,63.40
2019-01-27T14:27:55.822Z,60.90
2019-01-27T14:30:27.142Z,60.60
2019-01-27T14:32:55.635Z,60.80
2019-01-27T14:35:24.159Z,61.20
2019-01-27T14:37:52.648Z,61.90
2019-01-27T14:40:23.758Z,62.30
2019-01-27T14:42:52.414Z,62.20
2019-01-27T14:45:26.608Z,62.00
2019-01-27T14:47:55.032Z,61.90
2019-01-27T14:50:26.129Z,72.30
2019-01-27T14:52:54.592Z,66.40
2019-01-27T14:55:23.243Z,60.80
2019-01-27T14:57:52.334Z,61.30
2019-01-27T15:00:26.125Z,64.10
2019-01-27T15:02:54.549Z,64.50
2019-01-27T15:05:23.147Z,60.80
2019-01-27T15:07:51.650Z,60.40
2019-01-27T15:10:24.163Z,61.90
2019-01-27T15:12:52.700Z,60.20
2019-01-27T15:15:22.469Z,60.90
2019-01-27T15:17:51.221Z,60.00
2019-01-27T15:20:25.477Z,59.80
2019-01-27T15:22:53.982Z,59.60
2019-01-27T15:25:22.626Z,59.90
2019-01-27T15:27:51.174Z,60.20
2019-01-27T15:30:27.862Z,60.20
2019-01-27T15:32:56.388Z,60.90
2019-01-27T15:35:24.846Z,61.20
2019-01-27T15:37:53.437Z,61.60
2019-01-27T15:40:22.025Z,62.40
2019-01-27T15:42:51.313Z,62.10
2019-01-27T15:45:24.922Z,62.30
2019-01-27T15:47:53.581Z,62.30
2019-01-27T15:50:27.862Z,62.60
2019-01-27T15:52:56.377Z,62.30
2019-01-27T15:55:25.064Z,62.30
2019-01-27T15:57:53.669Z,62.60
2019-01-27T16:00:32.298Z,62.60
2019-01-27T16:03:01.814Z,63.90
2019-01-27T16:05:30.408Z,64.30
2019-01-27T16:07:59.071Z,64.70
2019-01-27T16:10:28.301Z,65.00
2019-01-27T16:12:57.827Z,65.40
2019-01-27T16:15:34.505Z,65.70
2019-01-27T16:18:03.255Z,66.20
2019-01-27T16:20:31.752Z,66.60
2019-01-27T16:23:08.226Z,66.80
2019-01-27T16:25:36.840Z,67.20
2019-01-27T16:28:05.768Z,67.60
2019-01-27T16:30:38.502Z,67.90
2019-01-27T16:33:11.472Z,68.10
2019-01-27T16:35:39.983Z,67.90
2019-01-27T16:38:08.463Z,68.00
2019-01-27T16:40:39.657Z,68.00
2019-01-27T16:43:08.951Z,68.50
2019-01-27T16:45:37.675Z,69.20
2019-01-27T16:48:06.258Z,69.40
2019-01-27T16:50:34.734Z,70.50
2019-01-27T16:53:03.170Z,71.60
2019-01-27T16:55:31.791Z,72.50
2019-01-27T16:58:00.261Z,73.40
2019-01-27T17:00:32.281Z,74.50
2019-01-27T17:03:00.935Z,75.20
2019-01-27T17:05:29.418Z,75.60
2019-01-27T17:07:58.074Z,76.20
2019-01-27T17:10:28.728Z,76.70
2019-01-27T17:12:57.300Z,77.30
2019-01-27T17:15:26.111Z,77.70
2019-01-27T17:17:54.681Z,78.50
2019-01-27T17:20:25.966Z,79.10
2019-01-27T17:22:54.752Z,79.20
2019-01-27T17:25:23.373Z,80.00
2019-01-27T17:27:51.943Z,80.30
2019-01-27T17:30:25.349Z,80.80
2019-01-27T17:32:54.106Z,81.40
2019-01-27T17:35:23.458Z,81.50
2019-01-27T17:37:52.259Z,81.80
2019-01-27T17:40:21.066Z,82.10
2019-01-27T17:42:49.689Z,82.70
2019-01-27T17:45:20.503Z,82.60
2019-01-27T17:47:49.154Z,82.80
2019-01-27T17:50:18.714Z,83.40
2019-01-27T17:52:47.237Z,83.80
2019-01-27T17:55:28.770Z,84.00
2019-01-27T17:57:58.949Z,84.50
2019-01-27T18:00:37.617Z,84.70
2019-01-27T18:03:07.933Z,85.00
2019-01-27T18:05:38.111Z,85.20
2019-01-27T18:08:08.376Z,85.50
2019-01-27T18:10:41.046Z,86.10
2019-01-27T18:13:12.817Z,86.20
2019-01-27T18:15:41.497Z,86.80
2019-01-27T18:18:10.128Z,87.10
2019-01-27T18:20:40.246Z,87.80
2019-01-27T18:23:08.806Z,88.10
2019-01-27T18:25:37.503Z,88.60
2019-01-27T18:28:06.226Z,88.80
2019-01-27T18:30:34.883Z,89.00
2019-01-27T18:33:04.758Z,89.30
2019-01-27T18:35:33.435Z,89.20
2019-01-27T18:38:02.116Z,89.60
2019-01-27T18:40:30.554Z,90.00
2019-01-27T18:42:59.021Z,90.10
2019-01-27T18:45:27.632Z,90.10
2019-01-27T18:47:56.206Z,90.20
2019-01-27T18:50:24.803Z,90.40
2019-01-27T18:52:54.975Z,90.40
2019-01-27T18:55:25.178Z,90.40
2019-01-27T18:58:04.144Z,90.40
2019-01-27T19:00:37.012Z,90.60
2019-01-27T19:03:07.174Z,90.70
2019-01-27T19:05:40.420Z,90.70
2019-01-27T19:08:29.004Z,90.80
2019-01-27T19:11:05.206Z,90.90
2019-01-27T19:13:44.840Z,91.10
2019-01-27T19:16:35.331Z,91.30
2019-01-27T19:19:05.898Z,91.70
2019-01-27T19:21:36.122Z,91.90
2019-01-27T19:24:06.390Z,92.10
2019-01-27T19:26:39.181Z,92.20
2019-01-27T19:29:25.804Z,92.40
2019-01-27T19:31:58.751Z,92.40
2019-01-27T19:34:40.524Z,92.30
2019-01-27T19:37:13.575Z,92.30
2019-01-27T19:39:49.586Z,92.40
2019-01-27T19:42:19.809Z,92.50
2019-01-27T19:44:50.015Z,92.50
2019-01-27T19:47:29.001Z,92.50
2019-01-27T19:49:59.138Z,92.50
2019-01-27T19:52:45.200Z,92.50
2019-01-27T19:55:15.363Z,92.60
2019-01-27T19:57:51.198Z,92.80
2019-01-27T20:00:21.378Z,93.20
2019-01-27T20:03:07.776Z,93.00
2019-01-27T20:05:44.023Z,93.00
2019-01-27T20:08:22.803Z,93.30
2019-01-27T20:10:53.083Z,93.60
2019-01-27T20:13:29.165Z,93.70
2019-01-27T20:15:59.238Z,93.70
2019-01-27T20:18:46.448Z,93.60
2019-01-27T20:21:16.580Z,93.50
2019-01-27T20:23:49.773Z,93.60
2019-01-27T20:26:33.945Z,93.80
2019-01-27T20:29:11.837Z,93.70
2019-01-27T20:31:50.635Z,93.60
2019-01-27T20:34:38.847Z,92.80
2019-01-27T20:37:09.011Z,92.70
2019-01-27T20:39:41.772Z,92.70
2019-01-27T20:42:15.341Z,92.50
2019-01-27T20:44:48.161Z,92.60
2019-01-27T20:47:34.731Z,92.70
2019-01-27T20:50:20.495Z,92.80
2019-01-27T20:52:53.650Z,92.70
2019-01-27T20:55:26.732Z,92.80
2019-01-27T20:57:57.109Z,92.90
2019-01-27T21:00:29.778Z,93.00
2019-01-27T21:03:05.471Z,92.80
2019-01-27T21:05:35.816Z,92.80
2019-01-27T21:08:09.175Z,92.90
2019-01-27T21:10:45.204Z,93.20
2019-01-27T21:13:31.881Z,93.30
2019-01-27T21:16:14.200Z,93.40
2019-01-27T21:18:44.348Z,93.60
2019-01-27T21:21:12.817Z,93.40
2019-01-27T21:23:41.428Z,93.20
2019-01-27T21:26:10.047Z,93.10
2019-01-27T21:28:38.691Z,92.90
2019-01-27T21:31:07.262Z,93.10
2019-01-27T21:33:35.872Z,93.20
2019-01-27T21:36:04.553Z,93.40
2019-01-27T21:38:33.077Z,93.50
2019-01-27T21:41:01.590Z,93.30
2019-01-27T21:43:30.115Z,93.50
2019-01-27T21:45:58.643Z,93.60
2019-01-27T21:48:27.160Z,93.10
2019-01-27T21:50:55.601Z,92.90
2019-01-27T21:53:24.083Z,92.70
2019-01-27T21:55:52.530Z,92.40
2019-01-27T21:58:21.186Z,91.90
2019-01-27T22:00:49.788Z,91.80
2019-01-27T22:03:18.267Z,91.40
2019-01-27T22:05:46.777Z,91.60
2019-01-27T22:08:15.250Z,91.80
2019-01-27T22:10:43.695Z,92.00
2019-01-27T22:13:12.118Z,92.00
2019-01-27T22:15:40.829Z,92.30
2019-01-27T22:18:09.272Z,92.40
2019-01-27T22:20:37.709Z,92.50
2019-01-27T22:23:06.225Z,92.70
2019-01-27T22:25:34.673Z,92.80
2019-01-27T22:28:03.101Z,93.10
2019-01-27T22:30:31.610Z,93.10
2019-01-27T22:33:00.040Z,93.10
2019-01-27T22:35:28.483Z,92.90
2019-01-27T22:37:56.966Z,93.10
2019-01-27T22:40:25.451Z,93.00
2019-01-27T22:42:53.882Z,93.00
2019-01-27T22:45:22.516Z,92.90
2019-01-27T22:47:51.116Z,93.00
2019-01-27T22:50:19.632Z,93.00
2019-01-27T22:52:48.113Z,92.90
2019-01-27T22:55:16.629Z,92.80
2019-01-27T22:57:45.246Z,92.70
2019-01-27T23:00:23.917Z,92.60
2019-01-27T23:02:52.353Z,92.40
2019-01-27T23:05:20.871Z,92.40
2019-01-27T23:07:49.376Z,92.10
2019-01-27T23:10:17.812Z,91.90
2019-01-27T23:12:46.320Z,91.60
2019-01-27T23:15:14.820Z,91.30
2019-01-27T23:17:43.289Z,91.20
2019-01-27T23:20:11.862Z,90.80
2019-01-27T23:22:40.319Z,90.80
2019-01-27T23:25:08.908Z,90.70
2019-01-27T23:27:37.345Z,90.50
2019-01-27T23:30:07.918Z,90.40
2019-01-27T23:32:36.423Z,90.50
2019-01-27T23:35:06.373Z,90.60
2019-01-27T23:37:34.830Z,90.70
2019-01-27T23:40:04.422Z,90.60
2019-01-27T23:42:32.921Z,90.80
2019-01-27T23:45:01.336Z,90.80
2019-01-27T23:47:29.799Z,90.80
2019-01-27T23:49:58.245Z,90.90
2019-01-27T23:52:26.668Z,90.70
2019-01-27T23:54:55.118Z,90.70
2019-01-27T23:57:23.562Z,90.60
2019-01-27T23:59:51.978Z,90.70
